Time;durP1;ratioP1;P1;durP2;ratioP2;P2;SDS_P1;SDS_P2;PMS_P1;PMS_P2;Temp;Humidity;BMP_temperature;BMP_pressure;BME280_temperature;BME280_humidity;BME280_pressure;Samples;Min_cycle;Max_cycle;Signal;HPM_P1;HPM_P2
2021/12/16 00:04:32;;;;;;;2.55;0.65;;;17.50;55.00;;;;;;5128207;28;20104;-63
2021/12/16 00:10:03;;;;;;;1.48;0.90;;;17.40;54.90;;;;;;5155038;27;1158879;-65
2021/12/16 00:31:56;;;;;;;2.33;0.95;;;17.40;54.90;;;;;;5089357;27;20348;-65
2021/12/16 00:34:24;;;;;;;;;;;17.40;54.90;;;;;;5088613;28;20131;-65
2021/12/16 00:36:50;;;;;;;2.28;1.20;;;17.30;54.80;;;;;;5088221;28;19916;-64
2021/12/16 00:39:26;;;;;;;3.33;1.20;;;17.30;54.80;;;;;;5087985;28;20093;-65
2021/12/16 00:41:59;;;;;;;2.33;0.80;;;17.30;54.90;;;;;;5088205;28;20048;-65
2021/12/16 00:44:59;;;;;;;2.05;1.08;;;17.30;54.80;;;;;;5088223;28;20066;-65
2021/12/16 00:47:31;;;;;;;3.80;1.15;;;17.30;54.80;;;;;;5087899;28;20048;-65
2021/12/16 00:50:17;;;;;;;2.33;1.15;;;17.30;54.90;;;;;;5088996;28;20040;-63
2021/12/16 00:56:02;;;;;;;2.92;1.05;;;17.30;54.90;;;;;;5089005;28;20036;-63
2021/12/16 00:58:30;;;;;;;2.53;1.15;;;17.30;54.90;;;;;;5088728;28;20050;-65
2021/12/16 01:01:07;;;;;;;3.38;1.35;;;17.30;54.90;;;;;;5088936;28;20050;-65
2021/12/16 01:34:01;;;;;;;2.00;1.17;;;17.20;54.90;;;;;;5152524;27;20054;-63
2021/12/16 01:37:04;;;;;;;2.92;1.20;;;17.20;54.90;;;;;;5152966;27;20042;-63
2021/12/16 01:50:27;;;;;;;2.33;1.02;;;17.00;54.80;;;;;;5130301;27;20402;-64
2021/12/16 01:55:45;;;;;;;2.45;1.40;;;17.10;54.80;;;;;;5152806;27;1164943;-63
2021/12/16 01:58:16;;;;;;;2.35;1.05;;;17.10;54.80;;;;;;5171867;27;20049;-63
2021/12/16 02:00:56;;;;;;;2.58;1.40;;;17.10;54.80;;;;;;5152959;27;20052;-62
2021/12/16 02:03:28;;;;;;;1.58;1.05;;;17.10;54.90;;;;;;5152927;27;20091;-63
2021/12/16 02:08:38;;;;;;;2.85;1.27;;;17.10;54.90;;;;;;5110077;27;20351;-63
2021/12/16 02:36:27;;;;;;;3.00;0.70;;;20.80;47.50;;;;;;5089387;28;20414;-63
2021/12/16 02:39:04;;;;;;;2.17;0.88;;;22.00;44.60;;;;;;5088154;28;20511;-63
2021/12/16 02:41:31;;;;;;;2.95;0.88;;;22.90;42.60;;;;;;5089339;28;20384;-63
2021/12/16 02:44:20;;;;;;;1.50;0.68;;;23.70;41.10;;;;;;5088307;28;20040;-65
2021/12/16 02:49:32;;;;;;;1.95;0.70;;;24.70;39.20;;;;;;5087667;28;20079;-65
2021/12/16 02:51:58;;;;;;;2.35;0.70;;;25.00;38.40;;;;;;5087792;28;20134;-63
2021/12/16 02:54:26;;;;;;;1.70;0.50;;;25.30;37.80;;;;;;5089258;28;20037;-62
2021/12/16 02:56:53;;;;;;;4.32;1.17;;;25.50;37.40;;;;;;5087807;28;20044;-63
2021/12/16 02:59:22;;;;;;;1.30;0.50;;;25.60;37.20;;;;;;5087952;28;20033;-62
2021/12/16 03:01:51;;;;;;;1.48;0.82;;;25.60;37.10;;;;;;5088024;28;20423;-63
2021/12/16 03:04:20;;;;;;;2.05;0.75;;;25.50;37.20;;;;;;5088854;28;20372;-63
2021/12/16 03:06:52;;;;;;;2.10;1.00;;;25.40;37.30;;;;;;5089150;28;20383;-65
2021/12/16 03:09:31;;;;;;;1.42;0.43;;;25.20;37.60;;;;;;5087892;28;20503;-62
2021/12/16 03:14:49;;;;;;;2.17;0.80;;;24.60;38.40;;;;;;5088470;28;20137;-63
2021/12/16 03:20:05;;;;;;;2.22;0.70;;;24.00;39.40;;;;;;5130350;27;20423;-63
2021/12/16 03:39:01;;;;;;;2.67;0.93;;;22.20;42.70;;;;;;5128646;28;20050;-62
2021/12/16 03:41:27;;;;;;;2.40;1.30;;;22.10;43.00;;;;;;5129149;28;20096;-63
2021/12/16 03:43:54;;;;;;;3.72;1.48;;;22.00;43.20;;;;;;5128951;28;20104;-63
2021/12/16 03:46:27;;;;;;;2.83;1.20;;;21.90;43.30;;;;;;5128752;28;20043;-62
2021/12/16 03:49:20;;;;;;;2.03;1.15;;;21.90;43.40;;;;;;5130024;27;20531;-63
2021/12/16 03:52:07;;;;;;;2.55;0.93;;;21.90;43.30;;;;;;5129929;27;20363;-63
2021/12/16 03:54:40;;;;;;;1.95;0.85;;;22.00;43.20;;;;;;5128527;28;20067;-65
2021/12/16 03:57:09;;;;;;;2.05;1.10;;;22.10;42.90;;;;;;5129840;27;20039;-62
2021/12/16 03:59:39;;;;;;;2.47;0.90;;;22.30;42.70;;;;;;5128402;28;20051;-63
2021/12/16 04:02:14;;;;;;;1.95;0.85;;;22.40;42.30;;;;;;5129846;27;20110;-66
2021/12/16 04:04:40;;;;;;;1.70;0.80;;;22.60;42.00;;;;;;5129719;27;20049;-65
2021/12/16 04:07:07;;;;;;;2.80;1.00;;;22.70;41.60;;;;;;5129703;27;20039;-62
2021/12/16 04:09:34;;;;;;;3.30;0.88;;;22.90;41.40;;;;;;5128200;28;20047;-63
2021/12/16 04:12:12;;;;;;;1.85;1.00;;;23.00;41.20;;;;;;5128450;28;20039;-64
2021/12/16 04:14:40;;;;;;;1.40;0.90;;;23.10;41.00;;;;;;5129413;27;20115;-62
2021/12/16 04:17:09;;;;;;;2.80;1.30;;;23.10;40.80;;;;;;5128138;28;20046;-63
2021/12/16 04:19:35;;;;;;;1.80;0.93;;;23.20;40.70;;;;;;5128067;28;20110;-63
2021/12/16 04:22:09;;;;;;;1.60;0.98;;;23.20;40.60;;;;;;5129304;27;20054;-62
2021/12/16 04:24:35;;;;;;;1.73;0.80;;;23.20;40.60;;;;;;5128167;28;20043;-63
2021/12/16 04:27:02;;;;;;;1.40;1.05;;;23.30;40.50;;;;;;5129385;27;20035;-63
2021/12/16 04:29:29;;;;;;;1.75;0.93;;;23.30;40.50;;;;;;5127504;28;20050;-63
2021/12/16 04:31:56;;;;;;;1.77;1.05;;;23.30;40.80;;;;;;5127836;28;20118;-62
2021/12/16 04:34:26;;;;;;;1.55;0.85;;;23.30;40.40;;;;;;5128046;28;20111;-62
2021/12/16 04:36:53;;;;;;;1.45;1.10;;;23.30;40.50;;;;;;5128013;28;20050;-63
2021/12/16 04:39:23;;;;;;;2.47;1.10;;;23.30;40.50;;;;;;5128982;27;20050;-64
2021/12/16 04:41:50;;;;;;;2.28;1.05;;;23.20;40.40;;;;;;5115214;28;20075;-63
2021/12/16 04:44:17;;;;;;;2.83;1.30;;;23.20;40.50;;;;;;5115243;27;20032;-63
2021/12/16 04:46:44;;;;;;;2.38;1.00;;;23.20;40.50;;;;;;5115262;28;20081;-63
2021/12/16 04:49:12;;;;;;;2.40;1.10;;;23.10;40.60;;;;;;5114951;27;20071;-63
2021/12/16 04:51:41;;;;;;;1.20;0.95;;;23.10;40.60;;;;;;5113820;28;20054;-63
2021/12/16 04:54:09;;;;;;;1.80;1.02;;;23.10;40.70;;;;;;5115240;28;20391;-65
2021/12/16 04:56:36;;;;;;;3.45;0.82;;;23.10;40.80;;;;;;5115138;28;20047;-63
2021/12/16 04:59:08;;;;;;;1.58;0.90;;;23.00;40.80;;;;;;5114877;28;20078;-63
2021/12/16 05:01:35;;;;;;;2.13;0.80;;;23.00;40.90;;;;;;5114916;28;20027;-64
2021/12/16 05:04:00;;;;;;;1.77;0.80;;;23.00;41.00;;;;;;5114765;28;20093;-65
2021/12/16 05:06:26;;;;;;;2.00;1.02;;;22.90;41.00;;;;;;5113556;28;20035;-63
2021/12/16 05:08:52;;;;;;;1.67;0.98;;;22.90;41.00;;;;;;5113650;28;20044;-63
2021/12/16 05:11:17;;;;;;;1.40;0.90;;;22.90;41.10;;;;;;5113377;28;20402;-66
2021/12/16 05:13:48;;;;;;;2.15;0.85;;;22.80;41.10;;;;;;5113446;28;20067;-65
2021/12/16 05:16:14;;;;;;;1.98;1.23;;;22.80;41.10;;;;;;5113203;28;20065;-65
2021/12/16 05:18:41;;;;;;;1.48;0.90;;;22.80;41.90;;;;;;5114573;28;20040;-63
2021/12/16 05:21:26;;;;;;;2.75;0.88;;;22.80;41.80;;;;;;5113272;28;20051;-66
2021/12/16 05:26:37;;;;;;;1.33;0.73;;;22.80;41.10;;;;;;5114321;28;20383;-65
2021/12/16 05:29:03;;;;;;;1.98;0.70;;;22.90;41.10;;;;;;5112673;28;20050;-63
2021/12/16 05:31:29;;;;;;;1.83;1.20;;;22.80;41.00;;;;;;5112916;28;20047;-65
2021/12/16 05:33:57;;;;;;;2.28;1.10;;;22.80;41.00;;;;;;5113327;28;20149;-65
2021/12/16 05:36:23;;;;;;;3.58;1.27;;;22.80;40.90;;;;;;5112874;28;20048;-65
2021/12/16 05:38:49;;;;;;;1.30;0.70;;;22.90;41.00;;;;;;5114373;28;20043;-66
2021/12/16 05:41:18;;;;;;;1.20;0.90;;;22.80;41.00;;;;;;5113086;28;20083;-66
2021/12/16 05:43:44;;;;;;;1.67;1.10;;;22.80;41.00;;;;;;5113152;28;20066;-65
2021/12/16 05:46:12;;;;;;;1.85;0.77;;;22.80;41.10;;;;;;5113926;28;20475;-63
2021/12/16 05:48:40;;;;;;;2.65;0.95;;;22.80;41.20;;;;;;5112657;28;20632;-63
2021/12/16 05:51:10;;;;;;;1.67;0.90;;;22.80;41.20;;;;;;5114019;28;20075;-64
2021/12/16 05:53:37;;;;;;;1.10;0.80;;;22.70;41.20;;;;;;5111639;28;20558;-64
2021/12/16 05:56:05;;;;;;;2.03;1.13;;;22.70;41.40;;;;;;5112614;28;20046;-66
2021/12/16 05:58:31;;;;;;;2.00;1.08;;;22.60;41.40;;;;;;5113625;28;20036;-66
2021/12/16 06:01:07;;;;;;;2.67;1.08;;;22.60;41.60;;;;;;5113717;28;20088;-63
2021/12/16 06:03:34;;;;;;;2.80;0.80;;;22.50;41.60;;;;;;5112397;28;20035;-66
2021/12/16 06:05:59;;;;;;;1.80;0.75;;;22.50;41.70;;;;;;5112673;28;20193;-65
2021/12/16 06:08:27;;;;;;;1.13;0.68;;;22.50;41.70;;;;;;5112511;28;20046;-64
2021/12/16 06:11:27;;;;;;;1.75;0.98;;;22.50;41.80;;;;;;5113547;28;20038;-65
2021/12/16 06:13:45;;;;;;;1.60;0.88;;;22.50;41.80;;;;;;5113396;28;20046;-65
2021/12/16 06:27:21;;;;;;;2.40;1.00;;;22.40;41.80;;;;;;5111848;28;20043;-65
2021/12/16 06:29:48;;;;;;;1.50;1.10;;;22.40;41.80;;;;;;5111552;28;20060;-64
2021/12/16 06:32:14;;;;;;;2.17;1.10;;;22.40;41.90;;;;;;5112330;28;20084;-65
2021/12/16 06:34:41;;;;;;;3.00;1.15;;;22.30;42.10;;;;;;5110296;28;20375;-65
2021/12/16 06:37:10;;;;;;;6.88;4.20;;;22.30;42.40;;;;;;5108832;28;20039;-66
2021/12/16 06:39:37;;;;;;;7.43;6.20;;;22.20;42.80;;;;;;5109661;28;20051;-66
2021/12/16 06:42:07;;;;;;;6.95;6.18;;;22.00;43.20;;;;;;5108702;28;20032;-65
2021/12/16 06:44:40;;;;;;;7.03;5.90;;;21.80;43.60;;;;;;5111752;28;20028;-66
2021/12/16 06:47:12;;;;;;;5.80;4.63;;;21.50;44.10;;;;;;5109904;28;20027;-65
2021/12/16 06:49:41;;;;;;;6.63;4.88;;;21.30;44.60;;;;;;5107255;28;20050;-65
2021/12/16 06:52:10;;;;;;;5.25;3.80;;;21.10;45.10;;;;;;5088850;28;20032;-65
2021/12/16 06:54:50;;;;;;;3.72;2.90;;;21.00;45.30;;;;;;5103184;28;20041;-66
2021/12/16 07:00:07;;;;;;;4.63;2.95;;;21.20;45.50;;;;;;5080770;27;20382;-66
2021/12/16 07:02:45;;;;;;;4.45;2.80;;;21.20;45.50;;;;;;5080131;28;20396;-65
2021/12/16 07:05:14;;;;;;;4.65;2.30;;;21.30;45.50;;;;;;5079915;28;20044;-64
2021/12/16 07:07:40;;;;;;;3.05;2.05;;;21.40;45.40;;;;;;5057407;28;20511;-65
2021/12/16 07:10:08;;;;;;;3.25;1.92;;;21.50;45.20;;;;;;5066994;28;20076;-65
2021/12/16 07:12:36;;;;;;;6.45;3.47;;;21.40;45.10;;;;;;5076555;28;20048;-65
2021/12/16 07:15:06;;;;;;;8.77;4.28;;;21.30;45.30;;;;;;5070935;28;20487;-65
2021/12/16 07:17:34;;;;;;;7.28;4.75;;;21.20;45.50;;;;;;5069644;28;20064;-65
2021/12/16 07:20:00;;;;;;;5.95;4.55;;;21.00;45.60;;;;;;5082755;28;20040;-66
2021/12/16 07:22:26;;;;;;;8.75;5.82;;;20.90;46.00;;;;;;5067548;28;20036;-66
2021/12/16 07:24:55;;;;;;;9.65;4.70;;;20.70;46.10;;;;;;5063776;28;20040;-64
2021/12/16 07:27:21;;;;;;;7.78;5.18;;;20.60;46.40;;;;;;5079071;28;20073;-63
2021/12/16 07:29:46;;;;;;;10.02;5.22;;;20.50;46.50;;;;;;5066381;28;20043;-63
2021/12/16 07:32:15;;;;;;;8.88;5.47;;;20.40;46.60;;;;;;5088046;28;20048;-64
2021/12/16 07:34:40;;;;;;;7.63;5.55;;;20.40;46.60;;;;;;5066748;28;20600;-64
2021/12/16 07:37:09;;;;;;;9.20;5.35;;;20.30;46.50;;;;;;5070108;28;20105;-65
2021/12/16 07:39:38;;;;;;;6.53;5.20;;;20.40;46.60;;;;;;5071099;28;20047;-65
2021/12/16 07:42:07;;;;;;;9.57;5.35;;;20.70;46.20;;;;;;5066371;28;20106;-65
2021/12/16 07:44:34;;;;;;;9.00;4.97;;;21.20;45.20;;;;;;5086072;28;20044;-66
2021/12/16 07:47:04;;;;;;;6.15;4.90;;;21.90;43.90;;;;;;5068888;28;20537;-65
2021/12/16 07:49:36;;;;;;;11.95;4.50;;;22.30;42.80;;;;;;5066010;28;20041;-65
2021/12/16 07:52:05;;;;;;;9.82;4.30;;;23.00;42.00;;;;;;5081292;28;20044;-65
2021/12/16 07:54:31;;;;;;;8.27;3.00;;;23.40;41.10;;;;;;5065551;28;20044;-66
2021/12/16 07:56:59;;;;;;;6.72;2.60;;;23.90;40.30;;;;;;5086857;28;20093;-66
2021/12/16 07:59:26;;;;;;;6.53;2.38;;;24.10;39.90;;;;;;5053586;28;20471;-65
2021/12/16 08:01:53;;;;;;;8.10;2.05;;;24.30;39.60;;;;;;5065017;28;20119;-66
2021/12/16 08:04:22;;;;;;;3.97;1.52;;;24.40;39.40;;;;;;5066590;28;20055;-66
2021/12/16 08:06:52;;;;;;;2.33;1.67;;;24.30;39.40;;;;;;5066342;28;20131;-67
2021/12/16 08:09:22;;;;;;;6.05;1.55;;;24.20;39.60;;;;;;5067387;28;20056;-66
2021/12/16 08:11:49;;;;;;;5.70;1.70;;;24.00;40.00;;;;;;5053435;28;20070;-67
2021/12/16 08:14:15;;;;;;;2.92;1.30;;;23.70;40.50;;;;;;5051742;28;20041;-66
2021/12/16 08:16:41;;;;;;;3.17;1.35;;;23.40;41.00;;;;;;5056750;28;20115;-66
2021/12/16 08:19:08;;;;;;;5.57;1.73;;;23.20;41.60;;;;;;5058631;28;20131;-66
2021/12/16 08:21:35;;;;;;;8.95;2.10;;;22.80;42.20;;;;;;5070864;28;20052;-66
2021/12/16 08:24:03;;;;;;;6.55;1.25;;;22.50;43.00;;;;;;5053627;28;20472;-65
2021/12/16 08:26:30;;;;;;;5.85;1.23;;;22.20;43.70;;;;;;5053420;28;20052;-66
2021/12/16 08:28:56;;;;;;;7.38;1.35;;;22.00;44.50;;;;;;5054919;28;20037;-66
2021/12/16 08:31:23;;;;;;;4.30;1.35;;;21.80;45.20;;;;;;5048690;28;20120;-66
2021/12/16 08:33:48;;;;;;;5.60;1.73;;;21.60;45.80;;;;;;5055184;28;20048;-66
2021/12/16 08:36:15;;;;;;;2.95;1.52;;;21.50;46.40;;;;;;5055337;28;20028;-66
2021/12/16 08:38:43;;;;;;;3.65;1.08;;;21.30;46.70;;;;;;5052544;28;20053;-67
2021/12/16 08:41:13;;;;;;;4.78;1.35;;;21.20;47.20;;;;;;5055115;28;20090;-66
2021/12/16 08:43:44;;;;;;;;;;;21.10;47.70;;;;;;5048788;28;20041;-67
2021/12/16 08:46:12;;;;;;;;;;;20.90;47.50;;;;;;5041781;28;19968;-66
2021/12/16 08:48:42;;;;;;;4.97;1.08;;;20.80;47.70;;;;;;5052425;28;19945;-67
2021/12/16 08:51:09;;;;;;;6.05;1.48;;;20.70;48.70;;;;;;5051302;28;20123;-67
2021/12/16 08:53:35;;;;;;;5.35;1.40;;;20.70;49.20;;;;;;5049567;28;20143;-67
2021/12/16 08:56:03;;;;;;;6.95;1.55;;;20.60;49.80;;;;;;5053216;28;20072;-67
2021/12/16 08:58:29;;;;;;;3.53;1.02;;;20.60;50.30;;;;;;5053648;28;20053;-66
2021/12/16 09:01:00;;;;;;;8.65;1.65;;;20.60;50.90;;;;;;5053353;28;20064;-67
2021/12/16 09:03:27;;;;;;;3.67;1.27;;;20.60;51.50;;;;;;5052062;28;20084;-66
2021/12/16 09:05:53;;;;;;;5.45;1.30;;;20.60;51.30;;;;;;5055322;28;20048;-68
2021/12/16 09:08:19;;;;;;;3.47;0.75;;;20.60;51.30;;;;;;5054905;28;20048;-67
2021/12/16 09:10:46;;;;;;;3.90;0.98;;;20.50;51.60;;;;;;5050615;28;20555;-67
2021/12/16 09:13:14;;;;;;;6.45;1.10;;;20.50;51.90;;;;;;5052800;28;20048;-66
2021/12/16 09:18:29;;;;;;;3.88;0.98;;;20.50;52.10;;;;;;5061345;28;20481;-65
2021/12/16 09:20:58;;;;;;;8.00;2.10;;;20.40;51.90;;;;;;5053952;28;20060;-68
2021/12/16 09:23:28;;;;;;;10.73;2.55;;;20.50;51.70;;;;;;5037600;28;20060;-68
2021/12/16 09:25:54;;;;;;;7.25;3.22;;;20.40;51.60;;;;;;5040416;28;20649;-71
2021/12/16 09:28:22;;;;;;;12.07;5.93;;;20.30;51.30;;;;;;5038694;28;20045;-71
2021/12/16 09:30:49;;;;;;;12.48;5.65;;;20.30;50.60;;;;;;5052144;28;20485;-69
2021/12/16 09:33:18;;;;;;;8.95;5.20;;;20.20;50.10;;;;;;5035061;28;20080;-68
2021/12/16 09:35:47;;;;;;;10.10;4.28;;;20.20;49.80;;;;;;5039735;28;20056;-66
2021/12/16 09:38:15;;;;;;;7.25;4.30;;;20.20;49.90;;;;;;5017508;28;20124;-64
2021/12/16 09:40:48;;;;;;;6.07;4.25;;;20.20;49.70;;;;;;5038571;28;20152;-66
2021/12/16 09:43:15;;;;;;;5.13;3.70;;;20.20;49.40;;;;;;5035576;28;20056;-67
2021/12/16 09:45:42;;;;;;;5.10;3.70;;;20.20;49.40;;;;;;5035947;28;20501;-67
2021/12/16 09:48:10;;;;;;;6.53;4.22;;;20.20;49.10;;;;;;5053125;28;20041;-66
2021/12/16 09:50:36;;;;;;;11.57;4.35;;;20.20;48.70;;;;;;5039475;28;20045;-66
2021/12/16 09:53:04;;;;;;;5.65;4.05;;;20.20;48.30;;;;;;5050174;28;20075;-68
2021/12/16 09:55:33;;;;;;;4.88;4.05;;;20.20;47.90;;;;;;5035519;28;20041;-70
2021/12/16 09:58:01;;;;;;;5.40;3.47;;;20.20;47.60;;;;;;5033591;28;20045;-67
2021/12/16 10:00:32;;;;;;;5.30;3.53;;;20.20;47.60;;;;;;5038198;28;20049;-68
2021/12/16 10:02:59;;;;;;;6.47;2.78;;;20.30;47.90;;;;;;5052949;28;20045;-68
2021/12/16 10:05:25;;;;;;;8.43;2.28;;;20.30;48.10;;;;;;5032274;28;20048;-70
2021/12/16 10:07:51;;;;;;;5.55;2.05;;;20.40;48.20;;;;;;5044035;28;20060;-67
2021/12/16 10:10:23;;;;;;;5.90;1.80;;;20.50;48.30;;;;;;5036682;28;20050;-67
2021/12/16 10:12:51;;;;;;;5.03;1.83;;;20.60;48.30;;;;;;5037576;28;20051;-67
2021/12/16 10:18:19;;;;;;;4.20;1.20;;;20.70;48.40;;;;;;5094242;27;20890;-67
2021/12/16 10:20:53;;;;;;;4.25;1.23;;;20.80;48.70;;;;;;5074895;28;20064;-66
2021/12/16 10:23:25;;;;;;;8.32;1.73;;;20.80;48.90;;;;;;5078132;28;20439;-69
2021/12/16 10:25:54;;;;;;;6.38;1.08;;;20.80;49.00;;;;;;5076902;28;20388;-67
2021/12/16 10:28:24;;;;;;;12.07;1.50;;;20.80;49.30;;;;;;5090349;28;20115;-68
2021/12/16 10:36:20;;;;;;;4.97;1.27;;;20.80;49.80;;;;;;5066331;28;20457;-65
2021/12/16 10:41:36;;;;;;;5.78;1.00;;;20.70;50.30;;;;;;5057103;27;20497;-69
2021/12/16 10:46:46;;;;;;;2.63;0.85;;;20.60;50.20;;;;;;5047200;27;20917;-64
2021/12/16 10:49:16;;;;;;;4.47;0.90;;;20.60;50.90;;;;;;5038931;28;20076;-65
2021/12/16 10:51:45;;;;;;;3.05;0.75;;;20.50;50.90;;;;;;5040845;28;20053;-67
2021/12/16 10:56:55;;;;;;;5.72;1.17;;;20.50;51.20;;;;;;5086307;27;20475;-65
2021/12/16 10:59:26;;;;;;;12.90;1.08;;;20.50;51.70;;;;;;5086283;28;20040;-66
2021/12/16 11:15:49;;;;;;;7.03;1.40;;;20.40;52.90;;;;;;5045484;28;20417;-65
2021/12/16 11:18:22;;;;;;;10.20;1.58;;;20.40;53.30;;;;;;5032071;28;20041;-67
2021/12/16 11:23:34;;;;;;;8.88;1.92;;;20.40;53.50;;;;;;5122450;27;1166564;-66
2021/12/16 11:28:42;;;;;;;3.53;1.73;;;20.30;53.40;;;;;;5098551;27;20467;-63
2021/12/16 11:33:55;;;;;;;11.18;4.40;;;20.20;51.90;;;;;;5096876;27;21710;-65
2021/12/16 11:36:31;;;;;;;9.82;4.95;;;20.20;51.30;;;;;;5096655;28;20051;-65
2021/12/16 11:39:03;;;;;;;4.93;3.58;;;20.10;50.70;;;;;;5110290;28;20058;-65
2021/12/16 11:44:13;;;;;;;7.75;4.53;;;20.10;50.40;;;;;;5069798;27;20465;-65
2021/12/16 11:46:47;;;;;;;9.43;5.28;;;20.10;49.60;;;;;;5057946;28;20045;-68
2021/12/16 11:57:25;;;;;;;6.30;4.47;;;20.30;48.90;;;;;;5099266;27;20482;-65
2021/12/16 11:59:58;;;;;;;5.82;5.28;;;20.40;48.30;;;;;;5093455;28;20031;-64
2021/12/16 12:08:08;;;;;;;9.88;3.17;;;20.50;47.90;;;;;;5062191;28;20945;-64
2021/12/16 12:13:34;;;;;;;9.60;2.15;;;22.40;45.10;;;;;;5109116;27;20458;-69
2021/12/16 12:19:18;;;;;;;6.90;1.70;;;23.00;44.00;;;;;;5088451;27;20449;-66
2021/12/16 12:21:56;;;;;;;6.00;1.67;;;22.90;44.60;;;;;;5089769;28;20058;-64
2021/12/16 12:24:25;;;;;;;9.38;2.08;;;22.80;44.80;;;;;;5089358;28;20044;-66
2021/12/16 12:32:25;;;;;;;6.85;1.65;;;22.70;45.10;;;;;;5066792;27;20457;-65
2021/12/16 12:35:14;;;;;;;6.75;1.48;;;22.10;46.90;;;;;;5067456;28;20526;-65
2021/12/16 12:37:45;;;;;;;9.48;1.67;;;21.90;47.30;;;;;;5070328;28;20495;-65
2021/12/16 12:42:54;;;;;;;6.82;1.58;;;21.60;47.70;;;;;;5119609;27;1158629;-65
2021/12/16 12:45:26;;;;;;;5.03;1.55;;;21.50;48.00;;;;;;5141237;27;20549;-66
2021/12/16 12:47:54;;;;;;;5.13;1.30;;;21.40;48.30;;;;;;5140135;27;20046;-65
2021/12/16 12:50:25;;;;;;;6.88;1.52;;;21.30;48.50;;;;;;5137851;27;20042;-66
2021/12/16 12:52:54;;;;;;;3.25;1.25;;;21.10;48.90;;;;;;5139793;27;20046;-65
2021/12/16 12:55:29;;;;;;;7.00;1.38;;;21.10;49.30;;;;;;5137452;27;20106;-65
2021/12/16 13:01:01;;;;;;;5.45;1.67;;;20.90;49.90;;;;;;5068629;28;21466;-66
2021/12/16 13:06:11;;;;;;;5.75;1.17;;;20.80;50.80;;;;;;5127812;27;1156347;-65
2021/12/16 13:08:47;;;;;;;3.97;1.30;;;20.70;51.10;;;;;;5118308;27;20513;-65
2021/12/16 13:11:18;;;;;;;5.82;1.60;;;20.70;51.40;;;;;;5129665;27;20429;-65
2021/12/16 13:28:16;;;;;;;13.63;4.88;;;20.50;52.10;;;;;;5061875;28;20482;-66
2021/12/16 13:30:55;;;;;;;9.95;5.05;;;20.40;51.60;;;;;;5058733;28;20052;-62
2021/12/16 13:33:39;;;;;;;8.27;4.97;;;20.30;51.00;;;;;;5059054;28;20037;-62
2021/12/16 13:36:26;;;;;;;8.65;4.57;;;20.30;50.20;;;;;;5052358;28;20170;-63
2021/12/16 13:38:53;;;;;;;11.63;4.18;;;20.20;50.10;;;;;;5057367;28;20044;-62
2021/12/16 13:41:24;;;;;;;12.63;5.03;;;20.20;49.80;;;;;;5053642;28;20093;-63
2021/12/16 13:44:13;;;;;;;9.27;3.75;;;20.30;49.60;;;;;;5053764;28;20098;-64
2021/12/16 13:47:02;;;;;;;13.85;5.50;;;20.50;49.70;;;;;;5070387;28;20720;-64
2021/12/16 13:58:43;;;;;;;8.10;5.50;;;21.10;47.20;;;;;;5086896;28;20056;-65
2021/12/16 14:03:49;;;;;;;9.88;4.63;;;21.30;46.90;;;;;;5090683;28;20273;-65
2021/12/16 14:06:36;;;;;;;11.45;4.57;;;21.60;46.70;;;;;;5097350;28;20043;-65
2021/12/16 14:09:22;;;;;;;10.45;4.72;;;22.00;46.40;;;;;;5119619;27;20379;-65
2021/12/16 14:23:21;;;;;;;7.22;4.40;;;21.80;45.40;;;;;;5083988;28;20056;-64
2021/12/16 14:26:14;;;;;;;8.18;4.13;;;21.60;45.50;;;;;;5065312;28;20079;-64
2021/12/16 14:32:15;;;;;;;4.90;3.25;;;21.40;45.60;;;;;;5083782;28;20565;-66
2021/12/16 14:42:41;;;;;;;11.48;3.53;;;21.30;46.00;;;;;;5126937;27;20398;-65
2021/12/16 14:55:58;;;;;;;1.77;1.23;;;20.90;47.60;;;;;;5131733;27;1156614;-66
2021/12/16 14:58:25;;;;;;;2.95;1.10;;;20.90;48.10;;;;;;5140835;27;20729;-65
2021/12/16 15:00:59;;;;;;;3.80;1.10;;;20.80;48.30;;;;;;5134749;27;20121;-65
2021/12/16 15:03:35;;;;;;;5.00;1.20;;;20.90;48.70;;;;;;5141290;27;20046;-66
2021/12/16 15:06:05;;;;;;;4.13;0.77;;;20.80;49.00;;;;;;5143236;27;20428;-65
2021/12/16 15:08:43;;;;;;;4.80;0.90;;;20.80;49.20;;;;;;5143147;27;20064;-65
2021/12/16 15:11:13;;;;;;;5.93;0.93;;;20.70;49.20;;;;;;5160066;27;20117;-65
2021/12/16 15:13:47;;;;;;;;;;;20.70;49.50;;;;;;5142965;27;20508;-63
2021/12/16 15:42:53;;;;;;;4.65;0.63;;;20.20;51.10;;;;;;5126216;27;20402;-66
2021/12/16 15:45:12;;;;;;;2.42;0.70;;;20.10;51.00;;;;;;5114075;28;20052;-66
2021/12/16 15:47:43;;;;;;;3.08;0.52;;;20.10;51.10;;;;;;5115438;28;20066;-65
2021/12/16 15:50:15;;;;;;;1.92;0.70;;;20.00;51.20;;;;;;5111266;28;20476;-69
2021/12/16 15:52:46;;;;;;;3.22;1.08;;;19.90;51.20;;;;;;5132523;27;20057;-66
2021/12/16 15:55:22;;;;;;;2.42;0.50;;;19.90;51.40;;;;;;5110387;28;20098;-66
2021/12/16 15:57:51;;;;;;;2.00;0.82;;;19.90;51.50;;;;;;5117414;28;20039;-65
2021/12/16 16:00:21;;;;;;;4.65;0.75;;;19.80;51.50;;;;;;5125871;28;20391;-68
2021/12/16 16:02:47;;;;;;;2.85;0.60;;;19.80;51.60;;;;;;5108862;27;20529;-65
2021/12/16 16:05:14;;;;;;;6.53;0.80;;;19.80;51.90;;;;;;5116423;27;20035;-64
2021/12/16 16:07:40;;;;;;;4.72;0.40;;;19.70;52.10;;;;;;5110511;28;20035;-65
2021/12/16 16:10:09;;;;;;;5.78;0.82;;;19.70;52.10;;;;;;5119536;28;20118;-64
2021/12/16 16:12:35;;;;;;;3.05;0.65;;;19.70;52.10;;;;;;5125459;27;20047;-64
2021/12/16 16:15:16;;;;;;;5.50;0.68;;;19.60;52.10;;;;;;5126099;27;20043;-64
2021/12/16 16:20:46;;;;;;;3.17;1.10;;;19.50;52.10;;;;;;5122363;28;20524;-67
2021/12/16 16:23:16;;;;;;;2.10;0.70;;;19.50;52.20;;;;;;5106841;28;20361;-64
2021/12/16 16:25:44;;;;;;;3.20;0.80;;;19.40;52.30;;;;;;5107210;28;20479;-65
2021/12/16 16:28:11;;;;;;;3.15;0.75;;;19.40;52.30;;;;;;5089752;28;20040;-64
2021/12/16 16:30:39;;;;;;;2.42;1.10;;;19.40;52.40;;;;;;5102460;28;20055;-64
2021/12/16 16:33:12;;;;;;;1.10;0.60;;;19.40;52.40;;;;;;5100942;28;20429;-65
2021/12/16 16:35:50;;;;;;;2.25;1.00;;;19.30;52.40;;;;;;5123847;27;20118;-65
2021/12/16 16:38:27;;;;;;;2.40;0.80;;;19.30;52.40;;;;;;5127031;27;20083;-65
2021/12/16 16:40:57;;;;;;;1.60;1.00;;;19.30;52.40;;;;;;5115451;28;20566;-65
2021/12/16 16:46:17;;;;;;;1.60;1.08;;;19.20;52.50;;;;;;5087642;28;20410;-64
2021/12/16 16:56:57;;;;;;;1.70;1.20;;;19.10;52.50;;;;;;5088484;28;20867;-63
2021/12/16 16:59:30;;;;;;;2.42;1.00;;;19.10;52.60;;;;;;5087458;28;20071;-64
2021/12/16 17:01:57;;;;;;;1.67;1.30;;;19.10;52.60;;;;;;5086655;28;20082;-64
2021/12/16 17:04:23;;;;;;;1.33;0.85;;;19.10;52.60;;;;;;5088675;28;20119;-63
2021/12/16 17:06:55;;;;;;;1.67;1.23;;;19.00;52.60;;;;;;5087331;28;20480;-65
2021/12/16 17:09:22;;;;;;;2.72;1.40;;;19.00;52.70;;;;;;5086986;28;20051;-64
2021/12/16 17:11:51;;;;;;;1.40;0.88;;;19.00;52.70;;;;;;5088757;28;20043;-63
2021/12/16 17:14:34;;;;;;;1.77;1.15;;;18.90;52.70;;;;;;5087452;28;20048;-62
2021/12/16 17:17:32;;;;;;;2.58;1.10;;;18.90;52.70;;;;;;5087803;28;20044;-64
2021/12/16 17:20:01;;;;;;;1.70;1.10;;;18.90;52.70;;;;;;5088940;28;20052;-63
2021/12/16 17:22:34;;;;;;;1.40;1.08;;;18.90;52.70;;;;;;5087931;28;20040;-64
2021/12/16 17:25:01;;;;;;;2.08;1.10;;;18.90;52.70;;;;;;5087519;28;20036;-65
2021/12/16 17:27:36;;;;;;;2.50;1.10;;;18.90;52.70;;;;;;5086016;28;20071;-63
2021/12/16 17:30:17;;;;;;;1.92;1.20;;;18.90;52.70;;;;;;5087256;28;20387;-63
2021/12/16 17:32:46;;;;;;;2.75;0.90;;;18.90;52.80;;;;;;5087388;28;20043;-63
2021/12/16 17:38:04;;;;;;;1.70;1.10;;;18.90;52.80;;;;;;5108513;27;20412;-63
2021/12/16 17:40:37;;;;;;;2.25;1.17;;;18.90;52.80;;;;;;5107813;28;20040;-64
2021/12/16 17:48:42;;;;;;;2.08;1.42;;;18.80;52.80;;;;;;5128665;27;20383;-65
2021/12/16 17:51:12;;;;;;;2.08;1.30;;;18.80;52.80;;;;;;5127981;28;20559;-63
2021/12/16 17:53:49;;;;;;;2.03;1.30;;;18.80;52.90;;;;;;5128350;28;20491;-64
2021/12/16 17:56:17;;;;;;;2.47;1.60;;;18.80;52.90;;;;;;5127332;28;20470;-65
2021/12/16 17:58:52;;;;;;;2.17;1.40;;;18.70;52.80;;;;;;5128242;28;20074;-63
2021/12/16 18:01:23;;;;;;;3.42;1.48;;;18.70;52.80;;;;;;5128090;28;20055;-65
2021/12/16 18:03:55;;;;;;;2.03;1.20;;;18.70;52.90;;;;;;5128392;28;20032;-64
2021/12/16 18:06:27;;;;;;;1.92;1.50;;;18.70;52.90;;;;;;5127060;28;20082;-63
2021/12/16 18:09:01;;;;;;;2.53;1.55;;;18.70;52.90;;;;;;5128391;27;20103;-64
2021/12/16 18:11:29;;;;;;;1.67;1.38;;;18.70;53.00;;;;;;5128435;27;20059;-64
2021/12/16 18:14:00;;;;;;;2.72;1.92;;;18.70;52.90;;;;;;5127622;27;20039;-63
2021/12/16 18:16:29;;;;;;;;;;;18.70;53.00;;;;;;5127790;28;20039;-63
2021/12/16 18:18:58;;;;;;;2.17;1.42;;;18.70;52.70;;;;;;5127839;28;19968;-64
2021/12/16 18:21:24;;;;;;;1.65;1.30;;;18.70;52.90;;;;;;5127835;28;20386;-64
2021/12/16 18:23:57;;;;;;;2.15;1.85;;;18.70;52.90;;;;;;5128816;27;20039;-64
2021/12/16 18:26:30;;;;;;;2.25;1.45;;;18.60;52.90;;;;;;5128214;27;20044;-64
2021/12/16 18:28:56;;;;;;;2.83;1.63;;;18.60;52.90;;;;;;5128379;27;20028;-64
2021/12/16 18:31:31;;;;;;;1.75;1.52;;;18.60;52.90;;;;;;5127643;27;20047;-63
2021/12/16 18:34:04;;;;;;;2.13;1.20;;;18.60;52.90;;;;;;5128138;27;20451;-63